Terminal Aerodrome Forecast
Issued by NWS St Louis, MO

Current Version | Previous Version | Text Only | Print | Product List | Glossary On
Versions: 1 2 3 4 5 6 7 8 9 10 11 12 13 14 15 16 17 18 19 20 21 22 23 24 25 26 27 28
000
FTUS43 KLSX 051700
TAFCOU
TAF
KCOU 051735Z 0518/0618 33008KT P6SM FEW030
     FM052300 VRB04KT P6SM SKC
     FM060700 16008KT P6SM SCT120
     FM061500 21012KT P6SM SKC=

USA.gov is the U.S. government's official web portal to all federal, state and local government web resources and services.